Time;durP1;ratioP1;P1;durP2;ratioP2;P2;SDS_P1;SDS_P2;PMS_P1;PMS_P2;Temp;Humidity;BMP_temperature;BMP_pressure;BME280_temperature;BME280_humidity;BME280_pressure;Samples;Min_cycle;Max_cycle;Signal;HPM_P1;HPM_P2
2021/07/20 00:00:10;;;;;;;6.87;5.27;;;;;;;;;;5033361;28;20546;-57
2021/07/20 00:02:37;;;;;;;8.20;5.90;;;;;;;;;;5033014;28;20436;-55
2021/07/20 00:05:07;;;;;;;6.97;6.03;;;;;;;;;;5032916;28;20866;-57
2021/07/20 00:07:35;;;;;;;7.50;5.23;;;;;;;;;;5032915;28;20526;-56
2021/07/20 00:10:02;;;;;;;7.20;5.90;;;;;;;;;;5033153;28;20491;-56
2021/07/20 00:12:29;;;;;;;6.70;5.30;;;;;;;;;;5033112;28;20477;-56
2021/07/20 00:14:58;;;;;;;8.10;5.83;;;;;;;;;;5032880;28;21006;-56
2021/07/20 00:17:27;;;;;;;7.40;5.23;;;;;;;;;;5033182;28;20456;-56
2021/07/20 00:19:55;;;;;;;8.80;5.77;;;;;;;;;;5033462;28;20477;-56
2021/07/20 00:22:23;;;;;;;9.37;5.67;;;;;;;;;;5033354;28;20448;-56
2021/07/20 00:24:50;;;;;;;9.13;5.23;;;;;;;;;;5036486;28;20441;-56
2021/07/20 00:27:18;;;;;;;12.10;5.20;;;;;;;;;;5037129;28;20511;-56
2021/07/20 00:29:45;;;;;;;8.70;5.00;;;;;;;;;;5036799;28;20465;-57
2021/07/20 00:32:13;;;;;;;5.67;4.50;;;;;;;;;;5036933;28;20444;-57
2021/07/20 00:34:40;;;;;;;6.80;4.80;;;;;;;;;;5036946;28;20437;-56
2021/07/20 00:37:07;;;;;;;5.60;4.67;;;;;;;;;;5036584;28;20452;-56
2021/07/20 00:39:36;;;;;;;7.53;4.97;;;;;;;;;;5036622;28;20469;-56
2021/07/20 00:42:04;;;;;;;5.93;4.83;;;;;;;;;;5036864;28;20854;-57
2021/07/20 00:44:31;;;;;;;5.97;4.30;;;;;;;;;;5036620;28;20441;-57
2021/07/20 00:46:58;;;;;;;8.30;4.53;;;;;;;;;;5036788;28;20449;-57
2021/07/20 00:49:26;;;;;;;9.43;5.63;;;;;;;;;;5036754;28;20472;-57
2021/07/20 00:51:53;;;;;;;7.80;5.10;;;;;;;;;;5036307;28;20448;-56
2021/07/20 00:54:20;;;;;;;9.40;4.80;;;;;;;;;;5036740;28;20606;-56
2021/07/20 00:56:49;;;;;;;7.77;4.60;;;;;;;;;;5037090;28;20502;-56
2021/07/20 00:59:16;;;;;;;6.23;5.20;;;;;;;;;;5036971;28;20506;-56
2021/07/20 01:01:44;;;;;;;7.43;4.93;;;;;;;;;;5036732;28;20925;-56
2021/07/20 01:04:11;;;;;;;8.43;4.70;;;;;;;;;;5036702;28;20445;-56
2021/07/20 01:06:40;;;;;;;8.03;5.43;;;;;;;;;;5036351;28;20936;-55
2021/07/20 01:09:08;;;;;;;8.90;4.60;;;;;;;;;;5036277;28;20889;-56
2021/07/20 01:11:35;;;;;;;7.20;4.40;;;;;;;;;;5036080;28;20502;-56
2021/07/20 01:14:05;;;;;;;8.80;4.70;;;;;;;;;;5036268;28;20472;-57
2021/07/20 01:16:32;;;;;;;6.37;4.60;;;;;;;;;;5036401;28;20499;-56
2021/07/20 01:19:00;;;;;;;6.60;4.90;;;;;;;;;;5035847;28;20544;-56
2021/07/20 01:21:28;;;;;;;8.80;4.53;;;;;;;;;;5037618;28;20429;-56
2021/07/20 01:23:57;;;;;;;9.00;4.50;;;;;;;;;;5035927;28;20528;-56
2021/07/20 01:26:25;;;;;;;6.40;4.63;;;;;;;;;;5035933;28;20933;-56
2021/07/20 01:28:53;;;;;;;7.13;4.53;;;;;;;;;;5035950;28;20495;-56
2021/07/20 01:31:21;;;;;;;8.03;4.97;;;;;;;;;;5036034;28;20445;-56
2021/07/20 01:33:50;;;;;;;8.30;4.87;;;;;;;;;;5036008;28;20476;-56
2021/07/20 01:36:18;;;;;;;6.70;4.97;;;;;;;;;;5034886;28;20445;-57
2021/07/20 01:38:46;;;;;;;6.20;4.90;;;;;;;;;;5035852;28;20792;-56
2021/07/20 01:41:16;;;;;;;5.20;4.40;;;;;;;;;;5036032;28;20445;-57
2021/07/20 01:43:45;;;;;;;6.50;4.67;;;;;;;;;;5035956;28;20449;-58
2021/07/20 01:46:13;;;;;;;5.57;4.43;;;;;;;;;;5036115;28;20456;-64
2021/07/20 01:48:42;;;;;;;6.23;4.23;;;;;;;;;;5035924;28;20494;-58
2021/07/20 01:51:09;;;;;;;7.40;4.77;;;;;;;;;;5035499;28;20519;-57
2021/07/20 01:53:37;;;;;;;5.90;3.80;;;;;;;;;;5035978;28;20472;-57
2021/07/20 01:56:05;;;;;;;6.53;3.50;;;;;;;;;;5035228;28;20991;-57
2021/07/20 01:58:37;;;;;;;5.90;4.13;;;;;;;;;;5035350;28;20499;-56
2021/07/20 02:01:04;;;;;;;7.60;3.60;;;;;;;;;;5035046;28;20475;-57
2021/07/20 02:03:46;;;;;;;7.43;4.73;;;;;;;;;;5035360;28;20438;-57
2021/07/20 02:09:01;;;;;;;4.10;3.70;;;;;;;;;;5035099;28;20403;-56
2021/07/20 02:11:34;;;;;;;6.03;4.30;;;;;;;;;;5035298;28;20445;-57
2021/07/20 02:14:05;;;;;;;6.13;4.13;;;;;;;;;;5034797;28;20965;-57
2021/07/20 02:16:34;;;;;;;4.90;4.40;;;;;;;;;;5035238;28;20434;-56
2021/07/20 02:19:02;;;;;;;6.63;4.17;;;;;;;;;;5034847;28;20452;-56
2021/07/20 02:21:30;;;;;;;5.23;4.10;;;;;;;;;;5035045;28;20479;-56
2021/07/20 02:23:58;;;;;;;7.00;4.40;;;;;;;;;;5034660;28;20972;-56
2021/07/20 02:26:26;;;;;;;14.67;4.90;;;;;;;;;;5034731;28;20957;-57
2021/07/20 02:28:54;;;;;;;7.03;4.67;;;;;;;;;;5034763;28;20544;-56
2021/07/20 02:31:23;;;;;;;8.00;3.90;;;;;;;;;;5034683;28;21007;-57
2021/07/20 02:33:51;;;;;;;6.17;4.50;;;;;;;;;;5034754;28;20481;-56
2021/07/20 02:36:18;;;;;;;6.83;4.50;;;;;;;;;;5034693;28;20448;-57
2021/07/20 02:38:46;;;;;;;6.10;4.27;;;;;;;;;;5034590;28;20441;-57
2021/07/20 02:41:13;;;;;;;8.20;4.73;;;;;;;;;;5034307;28;20848;-56
2021/07/20 02:43:41;;;;;;;9.17;5.00;;;;;;;;;;5034573;28;20441;-56
2021/07/20 02:46:11;;;;;;;5.67;4.70;;;;;;;;;;5034867;28;20495;-57
2021/07/20 02:48:40;;;;;;;7.90;4.87;;;;;;;;;;5034223;28;20515;-56
2021/07/20 02:51:08;;;;;;;6.60;4.50;;;;;;;;;;5034429;28;20591;-57
2021/07/20 02:53:37;;;;;;;6.50;4.60;;;;;;;;;;5035300;28;20535;-57
2021/07/20 02:56:06;;;;;;;6.90;4.90;;;;;;;;;;5034726;28;20445;-56
2021/07/20 02:58:33;;;;;;;7.93;4.13;;;;;;;;;;5034232;28;20448;-56
2021/07/20 03:01:01;;;;;;;7.30;4.70;;;;;;;;;;5034168;28;20527;-56
2021/07/20 03:03:28;;;;;;;8.23;4.90;;;;;;;;;;5033874;28;20449;-57
2021/07/20 03:05:57;;;;;;;5.40;4.47;;;;;;;;;;5034150;28;20499;-56
2021/07/20 03:08:27;;;;;;;6.37;5.00;;;;;;;;;;5033824;28;20445;-56
2021/07/20 03:10:55;;;;;;;9.40;4.50;;;;;;;;;;5033952;28;20464;-56
2021/07/20 03:13:22;;;;;;;7.50;4.77;;;;;;;;;;5033555;28;20550;-57
2021/07/20 03:15:50;;;;;;;5.37;4.60;;;;;;;;;;5033619;28;20444;-56
2021/07/20 03:18:17;;;;;;;6.83;4.57;;;;;;;;;;5033905;28;20507;-56
2021/07/20 03:20:45;;;;;;;7.07;5.27;;;;;;;;;;5033594;28;20473;-57
2021/07/20 03:23:14;;;;;;;7.27;5.87;;;;;;;;;;5033946;28;20854;-56
2021/07/20 03:25:42;;;;;;;8.83;5.20;;;;;;;;;;5033787;28;20445;-56
2021/07/20 03:28:10;;;;;;;7.93;5.37;;;;;;;;;;5033800;28;20448;-56
2021/07/20 03:30:37;;;;;;;8.30;4.87;;;;;;;;;;5033697;28;20461;-57
2021/07/20 03:33:05;;;;;;;8.97;5.80;;;;;;;;;;5033664;28;20448;-57
2021/07/20 03:35:32;;;;;;;6.07;5.47;;;;;;;;;;5033791;28;20480;-57
2021/07/20 03:38:00;;;;;;;10.50;5.20;;;;;;;;;;5033512;28;20866;-56
2021/07/20 03:40:29;;;;;;;10.40;5.40;;;;;;;;;;5033616;28;20523;-57
2021/07/20 03:42:57;;;;;;;9.67;5.80;;;;;;;;;;5033473;28;20523;-56
2021/07/20 03:45:24;;;;;;;9.10;6.00;;;;;;;;;;5033391;28;20591;-57
2021/07/20 03:47:52;;;;;;;8.33;5.50;;;;;;;;;;5033325;28;20453;-57
2021/07/20 03:50:20;;;;;;;7.43;6.23;;;;;;;;;;5033279;28;20881;-57
2021/07/20 03:52:48;;;;;;;8.23;6.03;;;;;;;;;;5033280;28;20441;-57
2021/07/20 03:55:18;;;;;;;10.07;6.23;;;;;;;;;;5033630;28;20481;-57
2021/07/20 03:57:47;;;;;;;8.40;5.67;;;;;;;;;;5032634;28;21011;-57
2021/07/20 04:00:16;;;;;;;7.00;5.80;;;;;;;;;;5033055;28;20560;-56
2021/07/20 04:02:47;;;;;;;8.63;6.20;;;;;;;;;;5033231;28;20811;-56
2021/07/20 04:08:23;;;;;;;9.63;6.23;;;;;;;;;;5091223;27;20704;-56
2021/07/20 04:10:51;;;;;;;8.10;6.10;;;;;;;;;;5090624;28;20455;-55
2021/07/20 04:13:19;;;;;;;7.70;6.40;;;;;;;;;;5090540;28;20530;-57
2021/07/20 04:15:47;;;;;;;12.53;6.10;;;;;;;;;;5090267;28;20446;-58
2021/07/20 04:18:15;;;;;;;11.07;6.70;;;;;;;;;;5090577;28;20492;-57
2021/07/20 04:20:43;;;;;;;10.37;6.73;;;;;;;;;;5090036;28;20466;-56
2021/07/20 04:23:10;;;;;;;8.83;6.50;;;;;;;;;;5090091;28;20508;-57
2021/07/20 04:25:40;;;;;;;9.90;6.47;;;;;;;;;;5090335;28;20446;-56
2021/07/20 04:28:08;;;;;;;9.13;6.97;;;;;;;;;;5090263;28;20462;-56
2021/07/20 04:30:36;;;;;;;11.87;7.30;;;;;;;;;;5090195;28;20520;-56
2021/07/20 04:33:03;;;;;;;15.80;7.50;;;;;;;;;;5089865;28;20446;-56
2021/07/20 04:35:31;;;;;;;10.57;6.10;;;;;;;;;;5090100;28;20516;-55
2021/07/20 04:37:58;;;;;;;8.47;6.50;;;;;;;;;;5090150;28;20777;-56
2021/07/20 04:40:25;;;;;;;10.70;6.60;;;;;;;;;;5089908;28;20462;-57
2021/07/20 04:42:54;;;;;;;9.03;6.00;;;;;;;;;;5090052;28;20500;-56
2021/07/20 04:45:22;;;;;;;10.60;7.40;;;;;;;;;;5090009;28;20442;-55
2021/07/20 04:47:49;;;;;;;10.60;6.63;;;;;;;;;;5089779;28;20474;-56
2021/07/20 04:50:17;;;;;;;8.27;6.30;;;;;;;;;;5089479;28;20470;-56
2021/07/20 04:52:44;;;;;;;8.43;6.57;;;;;;;;;;5089877;28;20442;-58
2021/07/20 04:55:12;;;;;;;9.30;6.60;;;;;;;;;;5090096;28;20503;-58
2021/07/20 04:57:39;;;;;;;11.37;6.47;;;;;;;;;;5089782;28;20930;-59
2021/07/20 05:00:09;;;;;;;11.60;7.00;;;;;;;;;;5089814;28;20516;-58
2021/07/20 05:02:38;;;;;;;8.50;5.87;;;;;;;;;;5089575;28;20450;-57
2021/07/20 05:05:06;;;;;;;7.83;7.03;;;;;;;;;;5089475;28;20446;-59
2021/07/20 05:07:33;;;;;;;13.90;8.63;;;;;;;;;;5089228;28;20532;-57
2021/07/20 05:10:01;;;;;;;10.20;6.67;;;;;;;;;;5089286;28;20528;-57
2021/07/20 05:12:28;;;;;;;10.37;6.70;;;;;;;;;;5089772;28;20442;-57
2021/07/20 05:14:56;;;;;;;10.80;6.00;;;;;;;;;;5089087;28;20452;-56
2021/07/20 05:17:24;;;;;;;12.10;6.60;;;;;;;;;;5089321;28;20439;-57
2021/07/20 05:19:52;;;;;;;12.80;6.40;;;;;;;;;;5074657;28;20995;-56
2021/07/20 05:22:21;;;;;;;16.90;7.17;;;;;;;;;;5075666;28;20447;-56
2021/07/20 05:24:48;;;;;;;8.63;6.40;;;;;;;;;;5075684;28;20439;-56
2021/07/20 05:27:16;;;;;;;9.70;6.50;;;;;;;;;;5075645;28;20528;-56
2021/07/20 05:29:46;;;;;;;9.60;6.20;;;;;;;;;;5075388;28;20520;-56
2021/07/20 05:32:16;;;;;;;9.47;6.40;;;;;;;;;;5075070;28;20454;-55
2021/07/20 05:34:47;;;;;;;9.93;7.10;;;;;;;;;;5075397;28;20443;-56
2021/07/20 05:37:17;;;;;;;9.43;6.80;;;;;;;;;;5075513;28;20497;-56
2021/07/20 05:39:44;;;;;;;12.17;6.83;;;;;;;;;;5075356;28;20520;-56
2021/07/20 05:42:11;;;;;;;10.60;6.40;;;;;;;;;;5074963;28;21000;-56
2021/07/20 05:44:38;;;;;;;9.50;6.47;;;;;;;;;;5075076;28;20451;-58
2021/07/20 05:47:06;;;;;;;9.13;6.30;;;;;;;;;;5074878;28;20470;-58
2021/07/20 05:49:35;;;;;;;9.07;6.60;;;;;;;;;;5074561;28;20462;-57
2021/07/20 05:52:04;;;;;;;10.03;6.20;;;;;;;;;;5075219;28;20856;-59
2021/07/20 05:54:32;;;;;;;13.10;6.03;;;;;;;;;;5074565;28;20447;-59
2021/07/20 05:57:00;;;;;;;9.13;6.60;;;;;;;;;;5074348;28;20451;-58
2021/07/20 05:59:27;;;;;;;10.17;6.67;;;;;;;;;;5074482;28;21047;-56
2021/07/20 06:01:55;;;;;;;9.17;6.07;;;;;;;;;;5074865;28;20443;-56
2021/07/20 06:04:22;;;;;;;9.37;7.30;;;;;;;;;;5074882;28;20512;-56
2021/07/20 06:06:50;;;;;;;11.20;7.40;;;;;;;;;;5074395;28;20490;-55
2021/07/20 06:09:20;;;;;;;8.13;6.80;;;;;;;;;;5074420;28;20455;-57
2021/07/20 06:11:49;;;;;;;11.00;6.20;;;;;;;;;;5074572;28;20534;-57
2021/07/20 06:14:18;;;;;;;12.07;6.87;;;;;;;;;;5074712;28;20481;-57
2021/07/20 06:16:46;;;;;;;8.33;5.70;;;;;;;;;;5074092;28;20513;-56
2021/07/20 06:19:13;;;;;;;11.23;5.57;;;;;;;;;;5074961;28;20546;-57
2021/07/20 06:21:41;;;;;;;8.67;6.40;;;;;;;;;;5074602;28;20439;-55
2021/07/20 06:24:09;;;;;;;9.37;5.87;;;;;;;;;;5073939;28;20512;-56
2021/07/20 06:26:38;;;;;;;9.87;5.50;;;;;;;;;;5074094;28;20444;-57
2021/07/20 06:29:08;;;;;;;6.70;4.53;;;;;;;;;;5074051;28;20439;-56
2021/07/20 06:31:39;;;;;;;8.50;5.60;;;;;;;;;;5073206;28;20434;-57
2021/07/20 06:34:07;;;;;;;10.43;5.70;;;;;;;;;;5074137;28;20432;-56
2021/07/20 06:36:36;;;;;;;5.90;5.13;;;;;;;;;;5074176;28;20504;-56
2021/07/20 06:39:03;;;;;;;6.20;4.50;;;;;;;;;;5073995;28;20538;-56
2021/07/20 06:41:31;;;;;;;9.53;5.53;;;;;;;;;;5074310;28;20915;-57
2021/07/20 06:44:00;;;;;;;7.93;5.30;;;;;;;;;;5074248;28;20451;-55
2021/07/20 06:46:29;;;;;;;9.37;5.90;;;;;;;;;;5074237;28;20443;-56
2021/07/20 06:48:56;;;;;;;11.20;5.43;;;;;;;;;;5073400;28;20519;-56
2021/07/20 06:51:24;;;;;;;5.80;4.60;;;;;;;;;;5073357;28;20447;-56
2021/07/20 06:53:52;;;;;;;8.63;5.63;;;;;;;;;;5073395;28;20520;-56
2021/07/20 06:56:22;;;;;;;8.00;4.60;;;;;;;;;;5073837;28;20871;-54
2021/07/20 06:58:51;;;;;;;8.17;5.30;;;;;;;;;;5073037;28;20507;-56
2021/07/20 07:01:21;;;;;;;8.07;5.73;;;;;;;;;;5073709;28;20508;-56
2021/07/20 07:03:51;;;;;;;5.63;4.83;;;;;;;;;;5073995;28;20427;-56
2021/07/20 07:06:19;;;;;;;9.83;6.20;;;;;;;;;;5073482;28;20516;-56
2021/07/20 07:08:47;;;;;;;5.63;5.07;;;;;;;;;;5073650;28;20463;-58
2021/07/20 07:11:15;;;;;;;10.37;5.67;;;;;;;;;;5073406;28;20444;-56
2021/07/20 07:13:43;;;;;;;10.67;5.80;;;;;;;;;;5073232;28;20515;-57
2021/07/20 07:16:10;;;;;;;7.30;4.80;;;;;;;;;;5073522;28;20447;-57
2021/07/20 07:18:39;;;;;;;7.80;4.60;;;;;;;;;;5073315;28;20508;-57
2021/07/20 07:21:07;;;;;;;8.07;4.30;;;;;;;;;;5070523;22;20890;-60
2021/07/20 07:23:35;;;;;;;5.90;3.83;;;;;;;;;;5033560;28;20441;-60
2021/07/20 07:26:03;;;;;;;7.73;4.43;;;;;;;;;;5033622;28;20486;-60
2021/07/20 07:28:30;;;;;;;7.13;4.60;;;;;;;;;;5032911;28;20483;-59
2021/07/20 07:30:58;;;;;;;8.47;4.90;;;;;;;;;;5033184;28;20465;-59
2021/07/20 07:33:25;;;;;;;6.03;5.20;;;;;;;;;;5033509;28;20436;-60
2021/07/20 07:35:54;;;;;;;7.03;4.83;;;;;;;;;;5032970;28;20440;-59
2021/07/20 07:38:22;;;;;;;6.70;4.30;;;;;;;;;;5032887;28;20444;-60
2021/07/20 07:40:51;;;;;;;7.33;4.70;;;;;;;;;;5033004;28;20468;-60
2021/07/20 07:43:19;;;;;;;11.03;5.70;;;;;;;;;;5033213;28;20445;-57
2021/07/20 07:45:47;;;;;;;12.03;5.20;;;;;;;;;;5033215;28;20823;-60
2021/07/20 07:48:15;;;;;;;8.20;4.20;;;;;;;;;;5033130;28;20830;-58
2021/07/20 07:50:42;;;;;;;6.33;3.63;;;;;;;;;;5032704;28;20523;-59
2021/07/20 07:53:11;;;;;;;5.80;4.00;;;;;;;;;;5033088;28;20457;-60
2021/07/20 07:55:39;;;;;;;5.80;4.33;;;;;;;;;;5033265;28;20491;-59
2021/07/20 07:58:06;;;;;;;6.93;4.60;;;;;;;;;;5033275;28;20463;-59
2021/07/20 08:00:34;;;;;;;11.53;4.77;;;;;;;;;;5032428;28;20472;-59
2021/07/20 08:03:03;;;;;;;5.03;4.07;;;;;;;;;;5032820;28;20449;-58
2021/07/20 08:05:30;;;;;;;9.20;5.70;;;;;;;;;;5033113;28;20536;-58
2021/07/20 08:07:58;;;;;;;6.43;4.30;;;;;;;;;;5033147;28;20549;-60
2021/07/20 08:10:27;;;;;;;6.73;3.70;;;;;;;;;;5033445;28;21051;-60
2021/07/20 08:12:58;;;;;;;7.00;4.03;;;;;;;;;;5032684;28;20863;-61
2021/07/20 08:15:25;;;;;;;6.20;4.20;;;;;;;;;;5033307;28;20429;-60
2021/07/20 08:17:53;;;;;;;6.23;3.53;;;;;;;;;;5033189;28;20524;-60
2021/07/20 08:20:21;;;;;;;5.50;3.53;;;;;;;;;;5032201;28;20477;-61
2021/07/20 08:22:48;;;;;;;4.63;3.57;;;;;;;;;;5032908;28;20450;-60
2021/07/20 08:25:19;;;;;;;5.43;3.60;;;;;;;;;;5032768;28;20444;-60
2021/07/20 08:27:49;;;;;;;5.03;3.90;;;;;;;;;;5032701;28;20465;-60
2021/07/20 08:30:18;;;;;;;7.57;4.20;;;;;;;;;;5032856;28;20468;-60
2021/07/20 08:32:48;;;;;;;7.70;4.23;;;;;;;;;;5032840;28;20471;-60
2021/07/20 08:35:17;;;;;;;4.57;3.73;;;;;;;;;;5032970;28;20441;-61
2021/07/20 08:37:46;;;;;;;7.77;4.40;;;;;;;;;;5032675;28;20453;-60
2021/07/20 08:40:16;;;;;;;5.33;3.60;;;;;;;;;;5032744;28;20473;-58
2021/07/20 08:42:50;;;;;;;5.20;3.67;;;;;;;;;;5032526;28;20449;-60
2021/07/20 08:45:22;;;;;;;5.03;3.43;;;;;;;;;;5032647;28;20506;-59
2021/07/20 08:48:01;;;;;;;5.50;3.70;;;;;;;;;;5032223;28;20469;-60
2021/07/20 08:50:30;;;;;;;5.37;3.80;;;;;;;;;;5032607;28;20532;-58
2021/07/20 08:53:05;;;;;;;5.60;3.97;;;;;;;;;;5032897;28;20465;-58
2021/07/20 08:55:34;;;;;;;3.87;3.40;;;;;;;;;;5037044;28;20874;-59
2021/07/20 08:58:04;;;;;;;5.43;3.17;;;;;;;;;;5036413;28;20450;-58
2021/07/20 09:00:37;;;;;;;4.80;3.83;;;;;;;;;;5036380;28;20465;-59
2021/07/20 09:03:10;;;;;;;4.53;3.30;;;;;;;;;;5036320;28;20465;-59
2021/07/20 09:05:43;;;;;;;5.10;3.20;;;;;;;;;;5036333;28;20984;-60
2021/07/20 09:08:14;;;;;;;3.70;3.40;;;;;;;;;;5036035;28;20977;-60
2021/07/20 09:10:43;;;;;;;4.37;3.50;;;;;;;;;;5036332;28;20469;-61
2021/07/20 09:13:12;;;;;;;6.63;4.40;;;;;;;;;;5036009;28;20817;-60
2021/07/20 09:15:44;;;;;;;6.80;4.20;;;;;;;;;;5035773;28;20539;-60
2021/07/20 09:18:17;;;;;;;6.10;3.40;;;;;;;;;;5035823;28;20514;-59
2021/07/20 09:20:46;;;;;;;7.90;3.40;;;;;;;;;;5035521;28;20485;-60
2021/07/20 09:23:16;;;;;;;5.60;3.00;;;;;;;;;;5036233;28;20489;-60
2021/07/20 09:25:44;;;;;;;5.83;3.40;;;;;;;;;;5035976;28;20449;-59
2021/07/20 09:28:15;;;;;;;3.73;3.30;;;;;;;;;;5036167;28;20536;-60
2021/07/20 09:30:46;;;;;;;4.93;3.50;;;;;;;;;;5036402;28;20468;-60
2021/07/20 09:33:22;;;;;;;5.20;3.20;;;;;;;;;;5037085;28;20493;-59
2021/07/20 09:35:52;;;;;;;6.03;3.73;;;;;;;;;;5036823;28;20427;-60
2021/07/20 09:38:28;;;;;;;3.50;2.87;;;;;;;;;;5036095;28;20455;-58
2021/07/20 09:41:02;;;;;;;5.47;3.30;;;;;;;;;;5035779;28;20902;-60
2021/07/20 09:43:43;;;;;;;3.00;2.23;;;;;;;;;;5035863;28;20437;-60
2021/07/20 09:46:16;;;;;;;3.37;2.47;;;;;;;;;;5035820;28;20433;-60
2021/07/20 09:48:46;;;;;;;4.30;3.00;;;;;;;;;;5036305;28;20522;-61
2021/07/20 09:51:23;;;;;;;6.57;2.90;;;;;;;;;;5036290;28;20466;-61
2021/07/20 09:54:05;;;;;;;3.00;2.50;;;;;;;;;;5035953;28;20517;-59
2021/07/20 09:56:42;;;;;;;4.63;3.00;;;;;;;;;;5035583;28;20496;-60
2021/07/20 09:59:17;;;;;;;3.87;2.63;;;;;;;;;;5035500;28;20444;-58
2021/07/20 10:01:50;;;;;;;6.30;3.50;;;;;;;;;;5034832;28;20469;-58
2021/07/20 10:04:21;;;;;;;5.27;3.20;;;;;;;;;;5034654;28;20432;-59
2021/07/20 10:06:50;;;;;;;4.70;3.40;;;;;;;;;;5036055;28;20814;-60
2021/07/20 10:09:19;;;;;;;5.73;3.40;;;;;;;;;;5034551;28;21018;-60
2021/07/20 10:11:49;;;;;;;4.27;3.10;;;;;;;;;;5034355;28;21018;-60
2021/07/20 10:14:20;;;;;;;4.87;2.70;;;;;;;;;;5034584;28;20446;-58
2021/07/20 10:16:56;;;;;;;4.73;2.63;;;;;;;;;;5034659;28;20482;-60
2021/07/20 10:19:29;;;;;;;4.03;2.97;;;;;;;;;;5034444;28;20456;-60
2021/07/20 10:21:58;;;;;;;3.50;3.00;;;;;;;;;;5034409;28;20456;-59
2021/07/20 10:24:28;;;;;;;3.57;2.67;;;;;;;;;;5034696;28;20479;-60
2021/07/20 10:26:57;;;;;;;3.50;3.20;;;;;;;;;;5034270;28;20553;-59
2021/07/20 10:29:28;;;;;;;3.63;3.20;;;;;;;;;;5034531;28;20912;-60
2021/07/20 10:32:02;;;;;;;3.40;3.10;;;;;;;;;;5034615;28;20437;-60
2021/07/20 10:34:31;;;;;;;3.90;3.20;;;;;;;;;;5034712;28;20437;-60
2021/07/20 10:36:59;;;;;;;2.83;2.53;;;;;;;;;;5034452;28;20539;-59
2021/07/20 10:39:27;;;;;;;4.97;3.37;;;;;;;;;;5034795;28;21000;-60
2021/07/20 10:41:59;;;;;;;3.63;3.33;;;;;;;;;;5044545;28;20469;-59
2021/07/20 10:44:30;;;;;;;5.73;3.60;;;;;;;;;;5042512;28;20485;-60
2021/07/20 10:47:03;;;;;;;4.87;3.43;;;;;;;;;;5043102;28;20434;-60
2021/07/20 10:49:33;;;;;;;6.00;3.93;;;;;;;;;;5037755;28;20497;-60
2021/07/20 10:52:03;;;;;;;4.83;3.73;;;;;;;;;;5034846;28;20451;-59
2021/07/20 10:54:35;;;;;;;4.60;3.13;;;;;;;;;;5034779;28;20442;-58
2021/07/20 10:57:04;;;;;;;5.37;3.40;;;;;;;;;;5034268;28;20458;-60
2021/07/20 10:59:34;;;;;;;4.23;3.83;;;;;;;;;;5034227;28;20440;-60
2021/07/20 11:02:07;;;;;;;4.60;3.73;;;;;;;;;;5034231;28;20439;-59
2021/07/20 11:04:42;;;;;;;6.80;3.57;;;;;;;;;;5034787;28;20431;-60
2021/07/20 11:07:10;;;;;;;5.50;3.77;;;;;;;;;;5034486;28;20454;-60
2021/07/20 11:09:38;;;;;;;5.00;3.60;;;;;;;;;;5034261;28;20556;-59
2021/07/20 11:12:06;;;;;;;6.43;3.47;;;;;;;;;;5034084;28;20510;-60
2021/07/20 11:14:36;;;;;;;6.33;3.17;;;;;;;;;;5034242;28;20795;-60
2021/07/20 11:17:05;;;;;;;6.80;3.57;;;;;;;;;;5033604;28;20492;-60
2021/07/20 11:19:34;;;;;;;6.70;3.60;;;;;;;;;;5033797;28;20439;-61
2021/07/20 11:22:03;;;;;;;6.13;3.40;;;;;;;;;;5033519;28;20447;-59
2021/07/20 11:24:30;;;;;;;4.87;3.47;;;;;;;;;;5033570;28;20455;-60
2021/07/20 11:27:00;;;;;;;3.03;2.73;;;;;;;;;;5033938;28;20524;-59
2021/07/20 11:29:28;;;;;;;5.43;3.20;;;;;;;;;;5033450;28;20471;-59
2021/07/20 11:31:56;;;;;;;7.17;3.40;;;;;;;;;;5033132;28;20449;-60
2021/07/20 11:34:28;;;;;;;4.30;2.97;;;;;;;;;;5033414;28;20501;-59
2021/07/20 11:36:56;;;;;;;4.40;3.57;;;;;;;;;;5033380;28;20434;-60
2021/07/20 11:39:26;;;;;;;6.50;3.50;;;;;;;;;;5033455;28;20458;-60
2021/07/20 11:41:57;;;;;;;5.70;3.17;;;;;;;;;;5033397;28;20475;-61
2021/07/20 11:44:30;;;;;;;4.60;3.60;;;;;;;;;;5033185;28;20438;-58
2021/07/20 11:46:59;;;;;;;5.03;3.73;;;;;;;;;;5033473;28;20459;-60
2021/07/20 11:49:33;;;;;;;3.53;3.23;;;;;;;;;;5033222;28;20544;-60
2021/07/20 11:52:05;;;;;;;5.77;3.90;;;;;;;;;;5033179;28;20441;-60
2021/07/20 11:54:37;;;;;;;4.47;4.00;;;;;;;;;;5033098;28;20450;-60
2021/07/20 11:57:19;;;;;;;4.03;3.40;;;;;;;;;;5033351;28;20497;-60
2021/07/20 12:00:07;;;;;;;4.77;3.13;;;;;;;;;;5033216;28;20486;-58
2021/07/20 12:02:58;;;;;;;6.97;3.20;;;;;;;;;;5033466;28;20459;-60
2021/07/20 12:05:43;;;;;;;4.03;3.63;;;;;;;;;;5033340;28;20433;-59
2021/07/20 12:08:18;;;;;;;6.97;3.03;;;;;;;;;;5023150;28;20464;-59
2021/07/20 12:10:47;;;;;;;4.30;3.33;;;;;;;;;;5032953;28;20537;-60
2021/07/20 12:13:16;;;;;;;5.20;3.00;;;;;;;;;;5033031;28;20452;-59
2021/07/20 12:15:44;;;;;;;6.80;3.37;;;;;;;;;;5032515;28;20459;-60
2021/07/20 12:18:12;;;;;;;6.30;3.70;;;;;;;;;;5033039;28;20447;-61
2021/07/20 12:20:40;;;;;;;6.10;3.97;;;;;;;;;;5032546;28;20472;-59
2021/07/20 12:23:10;;;;;;;5.67;3.67;;;;;;;;;;5032437;28;20449;-60
2021/07/20 12:25:39;;;;;;;5.43;4.20;;;;;;;;;;5032907;28;20954;-60
2021/07/20 12:28:07;;;;;;;4.13;3.70;;;;;;;;;;5033256;28;21007;-60
2021/07/20 12:30:35;;;;;;;6.53;3.87;;;;;;;;;;5036931;28;20543;-60
2021/07/20 12:33:03;;;;;;;6.93;3.83;;;;;;;;;;5036956;28;20444;-60
2021/07/20 12:35:32;;;;;;;7.30;4.00;;;;;;;;;;5036541;28;20452;-60
2021/07/20 12:38:02;;;;;;;5.53;3.90;;;;;;;;;;5036433;28;20511;-60
2021/07/20 12:40:29;;;;;;;5.33;3.87;;;;;;;;;;5037254;28;20467;-59
2021/07/20 12:43:07;;;;;;;5.00;3.63;;;;;;;;;;5036742;28;20458;-60
2021/07/20 12:45:34;;;;;;;5.20;3.50;;;;;;;;;;5036597;28;20452;-59
2021/07/20 12:48:03;;;;;;;5.10;3.93;;;;;;;;;;5036464;28;20445;-59
2021/07/20 12:50:30;;;;;;;5.30;3.90;;;;;;;;;;5036516;28;20574;-59
2021/07/20 12:52:58;;;;;;;4.90;3.70;;;;;;;;;;5036322;28;20463;-60
2021/07/20 12:55:25;;;;;;;3.60;3.30;;;;;;;;;;5036522;28;20543;-58
2021/07/20 12:57:53;;;;;;;5.60;3.97;;;;;;;;;;5036060;28;20445;-60
2021/07/20 13:00:24;;;;;;;5.20;3.97;;;;;;;;;;5036256;28;20462;-60
2021/07/20 13:02:52;;;;;;;4.10;3.70;;;;;;;;;;5036586;28;20437;-60
2021/07/20 13:05:20;;;;;;;5.60;3.50;;;;;;;;;;5036284;28;20529;-58
2021/07/20 13:07:47;;;;;;;5.13;3.43;;;;;;;;;;5036562;28;20472;-60
2021/07/20 13:10:15;;;;;;;4.67;3.30;;;;;;;;;;5035866;28;20556;-60
2021/07/20 13:12:42;;;;;;;4.93;3.60;;;;;;;;;;5036166;28;20493;-60
2021/07/20 13:15:19;;;;;;;4.27;3.60;;;;;;;;;;5036411;28;20509;-60
2021/07/20 13:17:50;;;;;;;5.60;3.40;;;;;;;;;;5036160;28;20435;-60
2021/07/20 13:20:18;;;;;;;5.97;3.70;;;;;;;;;;5035942;28;20484;-60
2021/07/20 13:22:45;;;;;;;8.43;3.80;;;;;;;;;;5060139;22;20486;-58
2021/07/20 13:25:13;;;;;;;6.90;3.57;;;;;;;;;;5035284;28;20443;-57
2021/07/20 13:27:41;;;;;;;4.07;3.63;;;;;;;;;;5035407;28;20492;-56
2021/07/20 13:30:09;;;;;;;5.20;3.60;;;;;;;;;;5035286;28;20534;-57
2021/07/20 13:32:37;;;;;;;4.60;4.10;;;;;;;;;;5035558;28;20468;-57
2021/07/20 13:35:07;;;;;;;8.20;4.80;;;;;;;;;;5035498;28;20450;-57
2021/07/20 13:37:35;;;;;;;3.50;3.20;;;;;;;;;;5034996;28;20503;-57
2021/07/20 13:40:04;;;;;;;4.63;4.00;;;;;;;;;;5034725;28;20437;-56
2021/07/20 13:42:32;;;;;;;5.37;3.63;;;;;;;;;;5034989;28;20470;-57
2021/07/20 13:45:01;;;;;;;4.40;3.43;;;;;;;;;;5035268;28;20446;-57
2021/07/20 13:47:29;;;;;;;4.43;3.67;;;;;;;;;;5035093;28;20449;-57
2021/07/20 13:49:59;;;;;;;4.03;3.63;;;;;;;;;;5034951;28;20480;-57
2021/07/20 13:52:28;;;;;;;4.83;3.20;;;;;;;;;;5035286;28;20526;-57
2021/07/20 13:54:58;;;;;;;4.87;3.90;;;;;;;;;;5034903;28;20504;-57
2021/07/20 13:57:25;;;;;;;4.63;3.97;;;;;;;;;;5034781;28;20867;-57
2021/07/20 13:59:53;;;;;;;3.33;3.03;;;;;;;;;;5034722;28;20449;-56
2021/07/20 14:02:20;;;;;;;4.20;3.30;;;;;;;;;;5034917;28;20461;-57
2021/07/20 14:04:48;;;;;;;4.90;3.47;;;;;;;;;;5035033;28;20548;-58
2021/07/20 14:07:16;;;;;;;4.00;3.63;;;;;;;;;;5035807;28;20450;-57
2021/07/20 14:09:46;;;;;;;4.30;3.40;;;;;;;;;;5034832;28;20567;-58
2021/07/20 14:12:13;;;;;;;3.80;3.37;;;;;;;;;;5035465;28;20467;-57
2021/07/20 14:14:41;;;;;;;7.63;4.10;;;;;;;;;;5034606;28;20938;-57
2021/07/20 14:17:08;;;;;;;7.73;4.30;;;;;;;;;;5034479;28;20457;-58
2021/07/20 14:19:36;;;;;;;6.70;4.00;;;;;;;;;;5034629;28;20534;-57
2021/07/20 14:22:04;;;;;;;5.50;4.07;;;;;;;;;;5034190;28;20535;-57
2021/07/20 14:24:32;;;;;;;5.30;3.10;;;;;;;;;;5034125;28;20931;-57
2021/07/20 14:27:00;;;;;;;4.60;3.50;;;;;;;;;;5034418;28;20456;-57
2021/07/20 14:29:29;;;;;;;6.60;4.00;;;;;;;;;;5034297;28;20489;-57
2021/07/20 14:31:57;;;;;;;5.13;4.20;;;;;;;;;;5034991;28;20470;-59
2021/07/20 14:34:24;;;;;;;5.93;3.47;;;;;;;;;;5034051;28;20451;-58
2021/07/20 14:36:53;;;;;;;5.60;3.80;;;;;;;;;;5034223;28;20843;-57
2021/07/20 14:39:36;;;;;;;4.83;3.93;;;;;;;;;;5033893;28;20933;-57
2021/07/20 14:42:18;;;;;;;5.00;3.63;;;;;;;;;;5033709;28;20477;-59
2021/07/20 14:45:04;;;;;;;5.23;3.90;;;;;;;;;;5034029;28;20427;-57
2021/07/20 14:47:52;;;;;;;4.87;3.40;;;;;;;;;;5033962;28;20503;-58
2021/07/20 14:50:20;;;;;;;3.93;3.23;;;;;;;;;;5008651;28;20567;-57
2021/07/20 14:52:51;;;;;;;3.43;3.13;;;;;;;;;;5033840;28;20617;-57
2021/07/20 14:55:19;;;;;;;4.47;3.17;;;;;;;;;;5033695;28;20442;-55
2021/07/20 14:57:49;;;;;;;4.10;3.70;;;;;;;;;;5033753;28;20453;-58